sensor_id;sensor_type;location;lat;lon;timestamp;temperature;humidity
18773;DHT22;9515;50.810;4.418;2022-07-23T00:00:49;20.20;99.90
18773;DHT22;9515;50.810;4.418;2022-07-23T00:03:15;20.20;99.90
18773;DHT22;9515;50.810;4.418;2022-07-23T00:05:41;20.20;99.90
18773;DHT22;9515;50.810;4.418;2022-07-23T00:08:07;20.20;99.90
18773;DHT22;9515;50.810;4.418;2022-07-23T00:10:33;20.10;99.90
18773;DHT22;9515;50.810;4.418;2022-07-23T00:12:59;20.10;99.90
18773;DHT22;9515;50.810;4.418;2022-07-23T00:15:25;20.10;99.90
18773;DHT22;9515;50.810;4.418;2022-07-23T00:17:51;20.20;99.90
18773;DHT22;9515;50.810;4.418;2022-07-23T00:20:17;20.20;99.90
18773;DHT22;9515;50.810;4.418;2022-07-23T00:22:50;20.20;99.90
18773;DHT22;9515;50.810;4.418;2022-07-23T00:25:16;20.10;99.90
18773;DHT22;9515;50.810;4.418;2022-07-23T00:27:43;20.10;99.90
18773;DHT22;9515;50.810;4.418;2022-07-23T00:30:10;20.10;99.90
18773;DHT22;9515;50.810;4.418;2022-07-23T00:32:50;20.00;99.90
18773;DHT22;9515;50.810;4.418;2022-07-23T00:35:19;20.00;99.90
18773;DHT22;9515;50.810;4.418;2022-07-23T00:37:45;20.00;99.90
18773;DHT22;9515;50.810;4.418;2022-07-23T00:40:11;19.90;99.90
18773;DHT22;9515;50.810;4.418;2022-07-23T00:42:37;19.90;99.90
18773;DHT22;9515;50.810;4.418;2022-07-23T00:45:03;20.00;99.90
18773;DHT22;9515;50.810;4.418;2022-07-23T00:47:29;19.90;99.90
18773;DHT22;9515;50.810;4.418;2022-07-23T00:49:55;19.90;99.90
18773;DHT22;9515;50.810;4.418;2022-07-23T00:52:21;19.80;99.90
18773;DHT22;9515;50.810;4.418;2022-07-23T00:54:47;19.90;99.90
18773;DHT22;9515;50.810;4.418;2022-07-23T00:57:13;20.00;99.90
18773;DHT22;9515;50.810;4.418;2022-07-23T00:59:40;20.00;99.90
18773;DHT22;9515;50.810;4.418;2022-07-23T01:02:06;19.80;99.90
18773;DHT22;9515;50.810;4.418;2022-07-23T01:04:31;19.80;99.90
18773;DHT22;9515;50.810;4.418;2022-07-23T01:06:57;19.80;99.90
18773;DHT22;9515;50.810;4.418;2022-07-23T01:09:23;19.80;99.90
18773;DHT22;9515;50.810;4.418;2022-07-23T01:11:50;19.70;99.90
18773;DHT22;9515;50.810;4.418;2022-07-23T01:14:18;19.70;99.90
18773;DHT22;9515;50.810;4.418;2022-07-23T01:16:46;19.70;99.90
18773;DHT22;9515;50.810;4.418;2022-07-23T01:19:13;19.70;99.90
18773;DHT22;9515;50.810;4.418;2022-07-23T01:21:41;19.70;99.90
18773;DHT22;9515;50.810;4.418;2022-07-23T01:24:08;19.70;99.90
18773;DHT22;9515;50.810;4.418;2022-07-23T01:26:35;19.80;99.90
18773;DHT22;9515;50.810;4.418;2022-07-23T01:29:00;19.70;99.90
18773;DHT22;9515;50.810;4.418;2022-07-23T01:31:26;19.50;99.90
18773;DHT22;9515;50.810;4.418;2022-07-23T01:33:52;19.50;99.90
18773;DHT22;9515;50.810;4.418;2022-07-23T01:36:18;19.40;99.90
18773;DHT22;9515;50.810;4.418;2022-07-23T01:38:44;19.40;99.90
18773;DHT22;9515;50.810;4.418;2022-07-23T01:41:10;19.40;99.90
18773;DHT22;9515;50.810;4.418;2022-07-23T01:43:35;19.40;99.90
18773;DHT22;9515;50.810;4.418;2022-07-23T01:46:01;19.50;99.90
18773;DHT22;9515;50.810;4.418;2022-07-23T01:48:27;19.50;99.90
18773;DHT22;9515;50.810;4.418;2022-07-23T01:50:52;19.50;99.90
18773;DHT22;9515;50.810;4.418;2022-07-23T01:53:18;19.40;99.90
18773;DHT22;9515;50.810;4.418;2022-07-23T01:55:44;19.40;99.90
18773;DHT22;9515;50.810;4.418;2022-07-23T01:58:09;19.40;99.90
18773;DHT22;9515;50.810;4.418;2022-07-23T02:00:35;19.40;99.90
18773;DHT22;9515;50.810;4.418;2022-07-23T02:03:01;19.20;99.90
18773;DHT22;9515;50.810;4.418;2022-07-23T02:05:27;19.20;99.90
18773;DHT22;9515;50.810;4.418;2022-07-23T02:07:57;19.20;99.90
18773;DHT22;9515;50.810;4.418;2022-07-23T02:10:24;19.20;99.90
18773;DHT22;9515;50.810;4.418;2022-07-23T02:12:49;19.20;99.90
18773;DHT22;9515;50.810;4.418;2022-07-23T02:15:15;19.20;99.90
18773;DHT22;9515;50.810;4.418;2022-07-23T02:17:41;19.20;99.90
18773;DHT22;9515;50.810;4.418;2022-07-23T02:20:07;19.20;99.90
18773;DHT22;9515;50.810;4.418;2022-07-23T02:22:34;19.10;99.90
18773;DHT22;9515;50.810;4.418;2022-07-23T02:25:00;19.10;99.90
18773;DHT22;9515;50.810;4.418;2022-07-23T02:27:25;19.10;99.90
18773;DHT22;9515;50.810;4.418;2022-07-23T02:29:51;19.10;99.90
18773;DHT22;9515;50.810;4.418;2022-07-23T02:32:17;19.20;99.90
18773;DHT22;9515;50.810;4.418;2022-07-23T02:34:42;19.20;99.90
18773;DHT22;9515;50.810;4.418;2022-07-23T02:37:08;19.20;99.90
18773;DHT22;9515;50.810;4.418;2022-07-23T02:39:35;19.20;99.90
18773;DHT22;9515;50.810;4.418;2022-07-23T02:42:01;19.20;99.90
18773;DHT22;9515;50.810;4.418;2022-07-23T02:44:27;19.20;99.90
18773;DHT22;9515;50.810;4.418;2022-07-23T02:46:52;19.00;99.90
18773;DHT22;9515;50.810;4.418;2022-07-23T02:49:18;19.00;99.90
18773;DHT22;9515;50.810;4.418;2022-07-23T02:51:44;19.00;99.90
18773;DHT22;9515;50.810;4.418;2022-07-23T02:54:09;19.00;99.90
18773;DHT22;9515;50.810;4.418;2022-07-23T02:56:35;19.00;99.90
18773;DHT22;9515;50.810;4.418;2022-07-23T02:59:01;19.00;99.90
18773;DHT22;9515;50.810;4.418;2022-07-23T03:01:27;19.00;99.90
18773;DHT22;9515;50.810;4.418;2022-07-23T03:03:52;19.00;99.90
18773;DHT22;9515;50.810;4.418;2022-07-23T03:06:18;19.10;99.90
18773;DHT22;9515;50.810;4.418;2022-07-23T03:08:44;19.10;99.90
18773;DHT22;9515;50.810;4.418;2022-07-23T03:11:09;19.00;99.90
18773;DHT22;9515;50.810;4.418;2022-07-23T03:13:40;18.90;99.90
18773;DHT22;9515;50.810;4.418;2022-07-23T03:16:06;18.80;99.90
18773;DHT22;9515;50.810;4.418;2022-07-23T03:18:32;18.80;99.90
18773;DHT22;9515;50.810;4.418;2022-07-23T03:20:58;18.80;99.90
18773;DHT22;9515;50.810;4.418;2022-07-23T03:23:24;18.80;99.90
18773;DHT22;9515;50.810;4.418;2022-07-23T03:25:50;18.90;99.90
18773;DHT22;9515;50.810;4.418;2022-07-23T03:28:16;18.80;99.90
18773;DHT22;9515;50.810;4.418;2022-07-23T03:30:43;18.80;99.90
18773;DHT22;9515;50.810;4.418;2022-07-23T03:33:14;18.80;99.90
18773;DHT22;9515;50.810;4.418;2022-07-23T03:35:42;18.80;99.90
18773;DHT22;9515;50.810;4.418;2022-07-23T03:38:08;18.80;99.90
18773;DHT22;9515;50.810;4.418;2022-07-23T03:40:33;18.80;99.90
18773;DHT22;9515;50.810;4.418;2022-07-23T03:42:59;18.70;99.90
18773;DHT22;9515;50.810;4.418;2022-07-23T03:45:24;18.50;99.90
18773;DHT22;9515;50.810;4.418;2022-07-23T03:47:50;18.50;99.90
18773;DHT22;9515;50.810;4.418;2022-07-23T03:50:16;18.60;99.90
18773;DHT22;9515;50.810;4.418;2022-07-23T03:52:41;18.60;99.90
18773;DHT22;9515;50.810;4.418;2022-07-23T03:55:07;18.70;99.90
18773;DHT22;9515;50.810;4.418;2022-07-23T03:57:33;18.70;99.90
18773;DHT22;9515;50.810;4.418;2022-07-23T03:59:59;18.70;99.90
18773;DHT22;9515;50.810;4.418;2022-07-23T04:02:24;18.80;99.90
18773;DHT22;9515;50.810;4.418;2022-07-23T04:04:50;18.80;99.90
18773;DHT22;9515;50.810;4.418;2022-07-23T04:07:16;18.80;99.90
18773;DHT22;9515;50.810;4.418;2022-07-23T04:09:43;18.80;99.90
18773;DHT22;9515;50.810;4.418;2022-07-23T04:12:09;19.00;99.90
18773;DHT22;9515;50.810;4.418;2022-07-23T04:14:35;19.00;99.90
18773;DHT22;9515;50.810;4.418;2022-07-23T04:17:01;19.00;99.90
18773;DHT22;9515;50.810;4.418;2022-07-23T04:19:27;19.10;99.90
18773;DHT22;9515;50.810;4.418;2022-07-23T04:21:53;19.10;99.90
18773;DHT22;9515;50.810;4.418;2022-07-23T04:24:18;19.20;99.90
18773;DHT22;9515;50.810;4.418;2022-07-23T04:26:45;19.20;99.90
18773;DHT22;9515;50.810;4.418;2022-07-23T04:29:10;19.20;99.90
18773;DHT22;9515;50.810;4.418;2022-07-23T04:31:36;19.40;99.90
18773;DHT22;9515;50.810;4.418;2022-07-23T04:34:02;19.70;99.90
18773;DHT22;9515;50.810;4.418;2022-07-23T04:36:28;19.80;99.90
18773;DHT22;9515;50.810;4.418;2022-07-23T04:38:54;20.00;99.90
18773;DHT22;9515;50.810;4.418;2022-07-23T04:41:20;20.30;99.90
18773;DHT22;9515;50.810;4.418;2022-07-23T04:43:46;20.40;99.90
18773;DHT22;9515;50.810;4.418;2022-07-23T04:46:12;20.70;99.90
18773;DHT22;9515;50.810;4.418;2022-07-23T04:48:39;20.90;99.90
18773;DHT22;9515;50.810;4.418;2022-07-23T04:51:05;21.10;99.90
18773;DHT22;9515;50.810;4.418;2022-07-23T04:53:31;21.20;99.90
18773;DHT22;9515;50.810;4.418;2022-07-23T04:55:57;21.40;99.90
18773;DHT22;9515;50.810;4.418;2022-07-23T04:58:22;21.50;99.90
18773;DHT22;9515;50.810;4.418;2022-07-23T05:00:48;21.80;99.90
18773;DHT22;9515;50.810;4.418;2022-07-23T05:03:14;21.90;99.90
18773;DHT22;9515;50.810;4.418;2022-07-23T05:05:40;22.00;99.90
18773;DHT22;9515;50.810;4.418;2022-07-23T05:08:06;22.30;99.90
18773;DHT22;9515;50.810;4.418;2022-07-23T05:10:32;22.40;99.90
18773;DHT22;9515;50.810;4.418;2022-07-23T05:12:58;22.60;99.90
18773;DHT22;9515;50.810;4.418;2022-07-23T05:15:24;22.80;99.90
18773;DHT22;9515;50.810;4.418;2022-07-23T05:17:49;23.00;99.90
18773;DHT22;9515;50.810;4.418;2022-07-23T05:20:15;23.30;99.90
18773;DHT22;9515;50.810;4.418;2022-07-23T05:22:41;23.60;99.90
18773;DHT22;9515;50.810;4.418;2022-07-23T05:25:07;23.70;99.90
18773;DHT22;9515;50.810;4.418;2022-07-23T05:27:33;23.90;99.90
18773;DHT22;9515;50.810;4.418;2022-07-23T05:29:59;24.10;99.90
18773;DHT22;9515;50.810;4.418;2022-07-23T05:32:24;24.10;99.90
18773;DHT22;9515;50.810;4.418;2022-07-23T05:34:50;24.20;99.90
18773;DHT22;9515;50.810;4.418;2022-07-23T05:37:16;24.40;99.90
18773;DHT22;9515;50.810;4.418;2022-07-23T05:39:42;24.30;99.90
18773;DHT22;9515;50.810;4.418;2022-07-23T05:42:07;24.20;99.90
18773;DHT22;9515;50.810;4.418;2022-07-23T05:44:33;24.10;99.90
18773;DHT22;9515;50.810;4.418;2022-07-23T05:46:59;23.90;99.90
18773;DHT22;9515;50.810;4.418;2022-07-23T05:49:24;23.90;99.90
18773;DHT22;9515;50.810;4.418;2022-07-23T05:51:50;24.00;99.90
18773;DHT22;9515;50.810;4.418;2022-07-23T05:54:16;24.00;99.90
18773;DHT22;9515;50.810;4.418;2022-07-23T05:56:42;23.80;99.90
18773;DHT22;9515;50.810;4.418;2022-07-23T05:59:07;23.90;99.90
18773;DHT22;9515;50.810;4.418;2022-07-23T06:01:33;23.80;99.90
18773;DHT22;9515;50.810;4.418;2022-07-23T06:03:59;23.80;99.90
18773;DHT22;9515;50.810;4.418;2022-07-23T06:06:25;23.90;99.90
18773;DHT22;9515;50.810;4.418;2022-07-23T06:08:50;23.70;99.90
18773;DHT22;9515;50.810;4.418;2022-07-23T06:11:16;23.90;99.90
18773;DHT22;9515;50.810;4.418;2022-07-23T06:13:42;24.20;99.90
18773;DHT22;9515;50.810;4.418;2022-07-23T06:16:08;24.60;99.90
18773;DHT22;9515;50.810;4.418;2022-07-23T06:18:33;25.10;99.90
18773;DHT22;9515;50.810;4.418;2022-07-23T06:20:59;25.30;99.90
18773;DHT22;9515;50.810;4.418;2022-07-23T06:23:25;25.70;99.90
18773;DHT22;9515;50.810;4.418;2022-07-23T06:25:50;26.00;99.90
18773;DHT22;9515;50.810;4.418;2022-07-23T06:28:16;26.40;99.90
18773;DHT22;9515;50.810;4.418;2022-07-23T06:30:42;26.40;99.90
18773;DHT22;9515;50.810;4.418;2022-07-23T06:33:07;26.60;99.90
18773;DHT22;9515;50.810;4.418;2022-07-23T06:35:33;26.80;99.90
18773;DHT22;9515;50.810;4.418;2022-07-23T06:37:59;27.00;99.90
18773;DHT22;9515;50.810;4.418;2022-07-23T06:40:25;27.20;99.90
18773;DHT22;9515;50.810;4.418;2022-07-23T06:42:51;27.30;99.90
18773;DHT22;9515;50.810;4.418;2022-07-23T06:45:17;27.60;99.90
18773;DHT22;9515;50.810;4.418;2022-07-23T06:47:43;27.30;99.90
18773;DHT22;9515;50.810;4.418;2022-07-23T06:50:09;26.90;99.90
18773;DHT22;9515;50.810;4.418;2022-07-23T06:52:35;26.40;99.90
18773;DHT22;9515;50.810;4.418;2022-07-23T06:55:00;26.10;99.90
18773;DHT22;9515;50.810;4.418;2022-07-23T06:57:26;25.90;99.90
18773;DHT22;9515;50.810;4.418;2022-07-23T06:59:52;25.70;99.90
18773;DHT22;9515;50.810;4.418;2022-07-23T07:02:18;25.70;99.90
18773;DHT22;9515;50.810;4.418;2022-07-23T07:04:44;25.70;99.90
18773;DHT22;9515;50.810;4.418;2022-07-23T07:07:10;25.60;99.90
18773;DHT22;9515;50.810;4.418;2022-07-23T07:09:37;25.70;99.90
18773;DHT22;9515;50.810;4.418;2022-07-23T07:12:03;25.80;99.90
18773;DHT22;9515;50.810;4.418;2022-07-23T07:14:29;26.20;99.90
18773;DHT22;9515;50.810;4.418;2022-07-23T07:16:55;26.50;99.90
18773;DHT22;9515;50.810;4.418;2022-07-23T07:19:21;26.90;99.90
18773;DHT22;9515;50.810;4.418;2022-07-23T07:21:46;27.50;99.90
18773;DHT22;9515;50.810;4.418;2022-07-23T07:24:12;27.80;99.90
18773;DHT22;9515;50.810;4.418;2022-07-23T07:26:38;28.20;99.90
18773;DHT22;9515;50.810;4.418;2022-07-23T07:29:05;28.50;99.90
18773;DHT22;9515;50.810;4.418;2022-07-23T07:31:30;29.10;99.90
18773;DHT22;9515;50.810;4.418;2022-07-23T07:33:56;29.50;99.90
18773;DHT22;9515;50.810;4.418;2022-07-23T07:36:22;29.30;99.90
18773;DHT22;9515;50.810;4.418;2022-07-23T07:38:48;29.50;99.90
18773;DHT22;9515;50.810;4.418;2022-07-23T07:41:14;29.40;99.90
18773;DHT22;9515;50.810;4.418;2022-07-23T07:43:39;29.40;99.90
18773;DHT22;9515;50.810;4.418;2022-07-23T07:46:06;29.60;99.90
18773;DHT22;9515;50.810;4.418;2022-07-23T07:48:38;29.50;99.90
18773;DHT22;9515;50.810;4.418;2022-07-23T07:51:04;29.50;99.90
18773;DHT22;9515;50.810;4.418;2022-07-23T07:53:30;29.70;99.90
18773;DHT22;9515;50.810;4.418;2022-07-23T07:55:56;29.90;99.90
18773;DHT22;9515;50.810;4.418;2022-07-23T07:58:21;29.80;99.90
18773;DHT22;9515;50.810;4.418;2022-07-23T08:00:47;29.70;99.90
18773;DHT22;9515;50.810;4.418;2022-07-23T08:03:13;30.30;99.90
18773;DHT22;9515;50.810;4.418;2022-07-23T08:05:39;30.90;99.90
18773;DHT22;9515;50.810;4.418;2022-07-23T08:08:05;30.60;99.90
18773;DHT22;9515;50.810;4.418;2022-07-23T08:10:30;31.00;99.90
18773;DHT22;9515;50.810;4.418;2022-07-23T08:12:57;31.10;99.90
18773;DHT22;9515;50.810;4.418;2022-07-23T08:15:25;31.60;99.90
18773;DHT22;9515;50.810;4.418;2022-07-23T08:17:51;31.60;99.90
18773;DHT22;9515;50.810;4.418;2022-07-23T08:20:19;31.80;99.90
18773;DHT22;9515;50.810;4.418;2022-07-23T08:25:38;31.30;99.90
18773;DHT22;9515;50.810;4.418;2022-07-23T08:28:06;31.20;99.90
18773;DHT22;9515;50.810;4.418;2022-07-23T08:30:33;30.90;99.90
18773;DHT22;9515;50.810;4.418;2022-07-23T08:33:01;31.10;99.90
18773;DHT22;9515;50.810;4.418;2022-07-23T08:35:36;31.40;99.90
18773;DHT22;9515;50.810;4.418;2022-07-23T08:38:04;32.00;99.90
18773;DHT22;9515;50.810;4.418;2022-07-23T08:40:32;32.40;99.90
18773;DHT22;9515;50.810;4.418;2022-07-23T08:42:58;32.60;99.90
18773;DHT22;9515;50.810;4.418;2022-07-23T08:45:25;33.10;99.90
18773;DHT22;9515;50.810;4.418;2022-07-23T08:47:53;32.60;99.90
18773;DHT22;9515;50.810;4.418;2022-07-23T08:50:20;32.00;99.90
18773;DHT22;9515;50.810;4.418;2022-07-23T08:52:48;31.50;99.90
18773;DHT22;9515;50.810;4.418;2022-07-23T08:55:19;31.60;99.90
18773;DHT22;9515;50.810;4.418;2022-07-23T08:57:50;31.90;99.90
18773;DHT22;9515;50.810;4.418;2022-07-23T09:00:17;31.80;99.90
18773;DHT22;9515;50.810;4.418;2022-07-23T09:02:45;31.40;99.90
18773;DHT22;9515;50.810;4.418;2022-07-23T09:05:12;31.90;99.90
18773;DHT22;9515;50.810;4.418;2022-07-23T09:08:14;32.60;99.90
18773;DHT22;9515;50.810;4.418;2022-07-23T09:10:49;32.70;99.90
18773;DHT22;9515;50.810;4.418;2022-07-23T09:16:07;33.40;99.90
18773;DHT22;9515;50.810;4.418;2022-07-23T09:18:47;33.40;99.90
18773;DHT22;9515;50.810;4.418;2022-07-23T09:21:25;32.80;99.90
18773;DHT22;9515;50.810;4.418;2022-07-23T09:24:02;32.40;99.90
18773;DHT22;9515;50.810;4.418;2022-07-23T09:31:58;33.50;99.90
18773;DHT22;9515;50.810;4.418;2022-07-23T09:34:27;33.70;99.90
18773;DHT22;9515;50.810;4.418;2022-07-23T09:36:55;34.00;99.90
18773;DHT22;9515;50.810;4.418;2022-07-23T09:39:29;33.90;99.90
18773;DHT22;9515;50.810;4.418;2022-07-23T09:41:55;33.70;99.90
18773;DHT22;9515;50.810;4.418;2022-07-23T09:44:21;32.80;99.90
18773;DHT22;9515;50.810;4.418;2022-07-23T09:46:49;33.20;99.90
18773;DHT22;9515;50.810;4.418;2022-07-23T09:49:20;33.60;99.90
18773;DHT22;9515;50.810;4.418;2022-07-23T09:51:48;34.00;99.90
18773;DHT22;9515;50.810;4.418;2022-07-23T09:54:38;33.80;99.90
18773;DHT22;9515;50.810;4.418;2022-07-23T09:57:10;33.80;99.90
18773;DHT22;9515;50.810;4.418;2022-07-23T09:59:40;33.90;99.90
18773;DHT22;9515;50.810;4.418;2022-07-23T10:02:08;34.20;99.90
18773;DHT22;9515;50.810;4.418;2022-07-23T10:04:35;34.60;99.90
18773;DHT22;9515;50.810;4.418;2022-07-23T10:07:03;34.30;99.90
18773;DHT22;9515;50.810;4.418;2022-07-23T10:09:41;34.70;99.90
18773;DHT22;9515;50.810;4.418;2022-07-23T10:12:13;34.90;99.90
18773;DHT22;9515;50.810;4.418;2022-07-23T10:14:58;35.50;99.90
18773;DHT22;9515;50.810;4.418;2022-07-23T10:17:24;35.70;99.90
18773;DHT22;9515;50.810;4.418;2022-07-23T10:19:50;35.70;99.90
18773;DHT22;9515;50.810;4.418;2022-07-23T10:22:27;35.70;99.90
18773;DHT22;9515;50.810;4.418;2022-07-23T10:25:15;35.70;99.90
18773;DHT22;9515;50.810;4.418;2022-07-23T10:33:53;35.50;99.90
18773;DHT22;9515;50.810;4.418;2022-07-23T10:39:15;34.30;99.90
18773;DHT22;9515;50.810;4.418;2022-07-23T10:41:43;34.40;99.90
18773;DHT22;9515;50.810;4.418;2022-07-23T10:44:14;35.40;99.90
18773;DHT22;9515;50.810;4.418;2022-07-23T10:46:57;35.80;99.80
18773;DHT22;9515;50.810;4.418;2022-07-23T10:49:36;37.00;99.00
18773;DHT22;9515;50.810;4.418;2022-07-23T10:54:56;36.40;99.00
18773;DHT22;9515;50.810;4.418;2022-07-23T10:57:49;36.40;99.40
18773;DHT22;9515;50.810;4.418;2022-07-23T11:00:25;35.90;99.40
18773;DHT22;9515;50.810;4.418;2022-07-23T11:02:53;35.30;99.90
18773;DHT22;9515;50.810;4.418;2022-07-23T11:05:54;35.50;99.90
18773;DHT22;9515;50.810;4.418;2022-07-23T11:08:15;36.50;99.50
18773;DHT22;9515;50.810;4.418;2022-07-23T11:10:45;36.50;99.90
18773;DHT22;9515;50.810;4.418;2022-07-23T11:13:31;35.80;99.90
18773;DHT22;9515;50.810;4.418;2022-07-23T11:34:43;38.30;98.20
18773;DHT22;9515;50.810;4.418;2022-07-23T11:37:11;38.80;98.20
18773;DHT22;9515;50.810;4.418;2022-07-23T11:39:38;39.80;98.20
18773;DHT22;9515;50.810;4.418;2022-07-23T11:42:05;40.70;97.80
18773;DHT22;9515;50.810;4.418;2022-07-23T11:44:37;41.00;96.90
18773;DHT22;9515;50.810;4.418;2022-07-23T11:47:08;41.40;96.50
18773;DHT22;9515;50.810;4.418;2022-07-23T11:49:35;42.00;95.20
18773;DHT22;9515;50.810;4.418;2022-07-23T11:54:34;40.40;95.30
18773;DHT22;9515;50.810;4.418;2022-07-23T11:57:01;39.90;95.60
18773;DHT22;9515;50.810;4.418;2022-07-23T11:59:31;39.60;97.10
18773;DHT22;9515;50.810;4.418;2022-07-23T12:02:02;39.90;96.30
18773;DHT22;9515;50.810;4.418;2022-07-23T12:09:56;36.70;98.00
18773;DHT22;9515;50.810;4.418;2022-07-23T12:12:22;36.40;98.70
18773;DHT22;9515;50.810;4.418;2022-07-23T12:14:55;36.40;98.50
18773;DHT22;9515;50.810;4.418;2022-07-23T12:17:28;37.30;98.20
18773;DHT22;9515;50.810;4.418;2022-07-23T12:19:54;37.90;97.60
18773;DHT22;9515;50.810;4.418;2022-07-23T12:22:21;38.80;97.20
18773;DHT22;9515;50.810;4.418;2022-07-23T12:24:54;39.00;96.30
18773;DHT22;9515;50.810;4.418;2022-07-23T12:27:21;39.30;96.60
18773;DHT22;9515;50.810;4.418;2022-07-23T12:29:47;39.70;96.90
18773;DHT22;9515;50.810;4.418;2022-07-23T12:32:28;40.30;95.90
18773;DHT22;9515;50.810;4.418;2022-07-23T12:35:08;40.70;95.50
18773;DHT22;9515;50.810;4.418;2022-07-23T12:37:39;40.30;95.40
18773;DHT22;9515;50.810;4.418;2022-07-23T12:40:25;40.20;95.90
18773;DHT22;9515;50.810;4.418;2022-07-23T12:43:04;39.40;96.10
18773;DHT22;9515;50.810;4.418;2022-07-23T12:48:14;37.60;97.20
18773;DHT22;9515;50.810;4.418;2022-07-23T12:50:43;37.20;97.60
18773;DHT22;9515;50.810;4.418;2022-07-23T12:53:13;36.80;97.50
18773;DHT22;9515;50.810;4.418;2022-07-23T12:55:40;36.20;98.30
18773;DHT22;9515;50.810;4.418;2022-07-23T12:58:17;35.60;99.10
18773;DHT22;9515;50.810;4.418;2022-07-23T13:01:03;35.20;99.10
18773;DHT22;9515;50.810;4.418;2022-07-23T13:03:37;35.60;98.80
18773;DHT22;9515;50.810;4.418;2022-07-23T13:06:05;35.00;99.30
18773;DHT22;9515;50.810;4.418;2022-07-23T13:08:32;34.50;99.50
18773;DHT22;9515;50.810;4.418;2022-07-23T13:11:00;34.60;99.60
18773;DHT22;9515;50.810;4.418;2022-07-23T13:13:28;34.30;99.90
18773;DHT22;9515;50.810;4.418;2022-07-23T13:15:55;34.60;99.90
18773;DHT22;9515;50.810;4.418;2022-07-23T13:18:21;34.70;99.30
18773;DHT22;9515;50.810;4.418;2022-07-23T13:20:48;35.80;99.20
18773;DHT22;9515;50.810;4.418;2022-07-23T13:23:14;37.20;98.30
18773;DHT22;9515;50.810;4.418;2022-07-23T13:25:40;39.10;97.00
18773;DHT22;9515;50.810;4.418;2022-07-23T13:28:06;40.50;95.40
18773;DHT22;9515;50.810;4.418;2022-07-23T13:30:33;41.10;95.30
18773;DHT22;9515;50.810;4.418;2022-07-23T13:32:59;41.50;94.20
18773;DHT22;9515;50.810;4.418;2022-07-23T13:35:25;40.60;94.60
18773;DHT22;9515;50.810;4.418;2022-07-23T13:37:51;39.20;94.80
18773;DHT22;9515;50.810;4.418;2022-07-23T13:40:16;39.00;95.40
18773;DHT22;9515;50.810;4.418;2022-07-23T13:42:42;39.30;94.50
18773;DHT22;9515;50.810;4.418;2022-07-23T13:45:08;39.30;94.80
18773;DHT22;9515;50.810;4.418;2022-07-23T13:47:34;38.30;95.30
18773;DHT22;9515;50.810;4.418;2022-07-23T13:49:59;38.20;95.80
18773;DHT22;9515;50.810;4.418;2022-07-23T13:52:25;37.40;95.80
18773;DHT22;9515;50.810;4.418;2022-07-23T13:54:51;36.60;96.90
18773;DHT22;9515;50.810;4.418;2022-07-23T13:57:17;37.20;96.10
18773;DHT22;9515;50.810;4.418;2022-07-23T13:59:43;37.90;95.50
18773;DHT22;9515;50.810;4.418;2022-07-23T14:02:08;38.40;95.40
18773;DHT22;9515;50.810;4.418;2022-07-23T14:04:34;39.10;94.50
18773;DHT22;9515;50.810;4.418;2022-07-23T14:07:00;38.90;94.40
18773;DHT22;9515;50.810;4.418;2022-07-23T14:09:26;38.20;95.20
18773;DHT22;9515;50.810;4.418;2022-07-23T14:11:53;37.70;95.50
18773;DHT22;9515;50.810;4.418;2022-07-23T14:14:19;37.10;96.50
18773;DHT22;9515;50.810;4.418;2022-07-23T14:16:44;37.00;97.00
18773;DHT22;9515;50.810;4.418;2022-07-23T14:19:10;36.50;96.70
18773;DHT22;9515;50.810;4.418;2022-07-23T14:21:37;36.00;97.60
18773;DHT22;9515;50.810;4.418;2022-07-23T14:24:03;35.50;97.50
18773;DHT22;9515;50.810;4.418;2022-07-23T14:26:29;35.20;98.50
18773;DHT22;9515;50.810;4.418;2022-07-23T14:28:55;34.90;97.30
18773;DHT22;9515;50.810;4.418;2022-07-23T14:31:21;34.90;97.30
18773;DHT22;9515;50.810;4.418;2022-07-23T14:33:48;34.40;98.70
18773;DHT22;9515;50.810;4.418;2022-07-23T14:36:13;34.30;98.20
18773;DHT22;9515;50.810;4.418;2022-07-23T14:38:39;33.70;98.50
18773;DHT22;9515;50.810;4.418;2022-07-23T14:41:05;33.20;99.10
18773;DHT22;9515;50.810;4.418;2022-07-23T14:43:32;33.10;99.40
18773;DHT22;9515;50.810;4.418;2022-07-23T14:45:58;33.10;99.30
18773;DHT22;9515;50.810;4.418;2022-07-23T14:48:24;32.80;99.60
18773;DHT22;9515;50.810;4.418;2022-07-23T14:50:49;32.60;99.80
18773;DHT22;9515;50.810;4.418;2022-07-23T14:53:15;32.50;99.90
18773;DHT22;9515;50.810;4.418;2022-07-23T14:55:41;32.70;99.90
18773;DHT22;9515;50.810;4.418;2022-07-23T14:58:06;32.70;99.80
18773;DHT22;9515;50.810;4.418;2022-07-23T15:00:32;32.80;99.90
18773;DHT22;9515;50.810;4.418;2022-07-23T15:02:58;33.10;99.90
18773;DHT22;9515;50.810;4.418;2022-07-23T15:05:24;32.90;99.70
18773;DHT22;9515;50.810;4.418;2022-07-23T15:07:49;32.90;99.80
18773;DHT22;9515;50.810;4.418;2022-07-23T15:10:15;33.00;99.90
18773;DHT22;9515;50.810;4.418;2022-07-23T15:12:42;33.00;99.90
18773;DHT22;9515;50.810;4.418;2022-07-23T15:15:08;32.80;99.90
18773;DHT22;9515;50.810;4.418;2022-07-23T15:17:34;32.80;99.90
18773;DHT22;9515;50.810;4.418;2022-07-23T15:19:59;32.50;99.90
18773;DHT22;9515;50.810;4.418;2022-07-23T15:22:25;32.60;99.90
18773;DHT22;9515;50.810;4.418;2022-07-23T15:24:51;32.70;99.90
18773;DHT22;9515;50.810;4.418;2022-07-23T15:27:17;32.50;99.90
18773;DHT22;9515;50.810;4.418;2022-07-23T15:29:44;32.70;99.90
18773;DHT22;9515;50.810;4.418;2022-07-23T15:32:10;32.70;99.90
18773;DHT22;9515;50.810;4.418;2022-07-23T15:34:37;32.60;99.90
18773;DHT22;9515;50.810;4.418;2022-07-23T15:37:03;32.50;99.90
18773;DHT22;9515;50.810;4.418;2022-07-23T15:39:31;32.40;99.90
18773;DHT22;9515;50.810;4.418;2022-07-23T15:41:59;32.20;99.90
18773;DHT22;9515;50.810;4.418;2022-07-23T15:44:25;31.80;99.90
18773;DHT22;9515;50.810;4.418;2022-07-23T15:46:51;31.70;99.90
18773;DHT22;9515;50.810;4.418;2022-07-23T15:49:16;31.40;99.90
18773;DHT22;9515;50.810;4.418;2022-07-23T15:51:42;31.40;99.90
18773;DHT22;9515;50.810;4.418;2022-07-23T15:54:08;31.40;99.90
18773;DHT22;9515;50.810;4.418;2022-07-23T15:56:34;31.50;99.90
18773;DHT22;9515;50.810;4.418;2022-07-23T15:58:59;31.40;99.90
18773;DHT22;9515;50.810;4.418;2022-07-23T16:01:25;31.60;99.90
18773;DHT22;9515;50.810;4.418;2022-07-23T16:03:55;31.40;99.90
18773;DHT22;9515;50.810;4.418;2022-07-23T16:06:21;31.40;99.90
18773;DHT22;9515;50.810;4.418;2022-07-23T16:08:47;31.50;99.90
18773;DHT22;9515;50.810;4.418;2022-07-23T16:11:13;31.60;99.90
18773;DHT22;9515;50.810;4.418;2022-07-23T16:13:40;31.70;99.90
18773;DHT22;9515;50.810;4.418;2022-07-23T16:16:06;31.90;99.90
18773;DHT22;9515;50.810;4.418;2022-07-23T16:18:32;31.90;99.90
18773;DHT22;9515;50.810;4.418;2022-07-23T16:20:57;31.80;99.90
18773;DHT22;9515;50.810;4.418;2022-07-23T16:23:24;31.80;99.90
18773;DHT22;9515;50.810;4.418;2022-07-23T16:25:50;31.60;99.90
18773;DHT22;9515;50.810;4.418;2022-07-23T16:28:15;31.50;99.90
18773;DHT22;9515;50.810;4.418;2022-07-23T16:30:41;31.30;99.90
18773;DHT22;9515;50.810;4.418;2022-07-23T16:33:07;31.30;99.90
18773;DHT22;9515;50.810;4.418;2022-07-23T16:35:33;31.40;99.90
18773;DHT22;9515;50.810;4.418;2022-07-23T16:37:59;31.20;99.90